• Join FlightAware (Why Join?)
  • Login
  • US Flag 
Trick or treat! (Boo!!) 
08:36PM EDT


 

Airport Tracker/Info


-or-


 

Live Flight TrackerFlight Track Log ✈ AAL2315 ✈ 22-Aug-2014 ✈ KORD - KDFW

Flight Track Log - Related Links

Times and Time Zones

All times are in EDT time to prevent confusion due to time zone crossing. See the AAL2315 flight status page for this flight to view local times or setup timezone preferences in your user account.

Time Position Orientation Groundspeed Altitude Reporting Facility
EDT Latitude Longitude Course Direction KTS MPH feet Rate Location/Type
11:39AM 41.9167 -87.9167 194° South 188 216 2,300  Level Chicago TRACON
11:40AM 41.8667 -87.9053 170° South 228 262 3,600 2,460 Climbing Chicago Center
11:41AM 41.6623 -88.0475 199° South  Level FlightAware Approximate
11:41AM 41.7889 -87.8989 176° South 277 319 6,700  Level Chicago Center
11:42AM 41.5597 -88.0938 198° South  Level FlightAware Approximate
11:42AM 41.7031 -87.8867 174° South 289 333 9,600  Level Chicago Center
11:43AM 41.4570 -88.1395 198° South  Level FlightAware Approximate
11:43AM 41.6189 -87.8761 175° South 306 352 12,200  Level Chicago Center
11:44AM 41.3550 -88.1856 207° Southwest  Level FlightAware Approximate
11:44AM 41.5333 -87.9075 195° South 313 360 14,500  Level Chicago Center
11:45AM 41.2521 -88.2438 194° South  Level FlightAware Approximate
11:45AM 41.4508 -87.9667 208° Southwest 335 386 16,100  Level Chicago Center
11:46AM 41.3472 -88.0283 204° Southwest 385 443 17,900 1,740 Climbing Chicago Center
11:47AM 41.2528 -88.0883 206° Southwest 392 451 19,700 1,500 Climbing Chicago Center
11:48AM 41.1508 -88.1531 206° Southwest 399 459 21,100 1,500 Climbing Chicago Center
11:49AM 41.0431 -88.2239 206° Southwest 426 490 22,800 1,500 Climbing Chicago Center
11:50AM 40.9572 -88.3367 225° Southwest 433 498 24,300 1,920 Climbing Chicago Center
11:51AM 40.8483 -88.4592 220° Southwest 430 495 26,800 1,500 Climbing Chicago Center
11:52AM 40.7575 -88.5600 220° Southwest 425 489 27,500 780 Climbing Chicago Center
11:53AM 40.6636 -88.6614 219° Southwest 432 497 28,500 960 Climbing Chicago Center
11:54AM 40.5708 -88.7642 220° Southwest 435 501 29,600 900 Climbing Chicago Center
11:55AM 40.4850 -88.8700 223° Southwest 436 502 30,400 900 Climbing Chicago Center
11:56AM 40.3792 -89.0025 224° Southwest 436 502 31,500 780 Climbing Chicago Center
11:58AM 40.2906 -89.1122 223° Southwest 436 502 32,100 600 Climbing Chicago Center
11:59AM 40.2006 -89.2236 223° Southwest 437 503 32,800 540 Climbing Chicago Center
12:00PM 40.1125 -89.3347 224° Southwest 442 509 33,300 360 Climbing Chicago Center
12:00PM 40.0614 -89.3983 224° Southwest 435 501 33,500 240 Climbing Kansas City Center
12:01PM 39.9533 -89.5308 223° Southwest 438 504 33,800 240 Climbing Kansas City Center
12:02PM 39.8531 -89.6314 218° Southwest 449 517 34,000 60 Climbing Kansas City Center
12:03PM 39.7567 -89.7322 219° Southwest 448 516 34,000  Level Kansas City Center
12:04PM 39.6539 -89.8400 219° Southwest 448 516 34,000  Level Kansas City Center
12:05PM 39.5567 -89.9414 219° Southwest 448 516 34,000  Level Kansas City Center
12:07PM 39.4592 -90.0431 219° Southwest 449 517 34,000  Level Kansas City Center
12:08PM 39.3611 -90.1456 219° Southwest 451 519 34,000  Level Kansas City Center
12:09PM 39.2625 -90.2481 219° Southwest 454 522 34,000  Level Kansas City Center
12:10PM 39.1453 -90.3689 219° Southwest 454 522 34,000  Level Kansas City Center
12:11PM 39.0458 -90.4719 219° Southwest 457 526 34,000  Level Kansas City Center
12:12PM 38.9353 -90.5842 218° Southwest 459 528 34,000  Level Kansas City Center
12:13PM 38.8369 -90.6814 218° Southwest 460 529 34,000  Level Kansas City Center
12:14PM 38.7267 -90.7942 219° Southwest 462 532 34,000  Level Kansas City Center
12:15PM 38.6267 -90.8936 218° Southwest 462 532 34,000  Level Kansas City Center
12:16PM 38.5267 -90.9928 218° Southwest 460 529 34,000  Level Kansas City Center
12:17PM 38.4261 -91.0925 218° Southwest 460 529 34,000  Level Kansas City Center
12:18PM 38.3264 -91.1911 218° Southwest 458 527 34,000  Level Kansas City Center
12:19PM 38.2056 -91.3103 218° Southwest 458 527 34,000  Level Kansas City Center
12:20PM 38.1089 -91.4047 218° Southwest 457 526 34,000  Level Kansas City Center
12:21PM 38.0100 -91.5019 218° Southwest 451 519 34,000  Level Kansas City Center
12:22PM 37.9114 -91.6003 218° Southwest 450 518 34,000  Level Kansas City Center
12:23PM 37.8139 -91.6964 218° Southwest 445 512 34,000  Level Kansas City Center
12:24PM 37.6947 -91.8122 218° Southwest 445 512 34,000  Level Kansas City Center
12:25PM 37.5944 -91.9092 217° Southwest 445 512 34,000  Level Kansas City Center
12:26PM 37.4936 -92.0083 218° Southwest 449 517 34,000  Level Kansas City Center
12:27PM 37.4006 -92.1128 222° Southwest 449 517 34,000  Level Kansas City Center
12:28PM 37.3058 -92.2186 222° Southwest 449 517 34,000  Level Kansas City Center
12:29PM 37.2122 -92.3236 222° Southwest 449 517 34,000  Level Kansas City Center
12:30PM 37.1169 -92.4281 221° Southwest 450 518 34,000  Level Kansas City Center
12:31PM 37.0233 -92.5314 221° Southwest 447 514 34,000  Level Kansas City Center
12:32PM 36.9092 -92.6542 221° Southwest 447 514 34,000  Level Kansas City Center
12:33PM 36.8153 -92.7583 222° Southwest 448 516 34,000  Level Kansas City Center
12:34PM 36.7189 -92.8639 221° Southwest 450 518 34,000  Level Kansas City Center
12:35PM 36.6197 -92.9722 221° Southwest 462 532 34,000  Level Kansas City Center
12:37PM 36.5172 -93.0778 220° Southwest 479 551 34,000  Level Kansas City Center
12:38PM 36.4178 -93.1858 221° Southwest 479 551 34,000  Level Kansas City Center
12:39PM 36.2992 -93.3092 220° Southwest 474 545 34,000  Level Kansas City Center
12:40PM 36.1794 -93.4411 222° Southwest 472 543 34,000  Level Memphis Center
12:41PM 36.0789 -93.5464 220° Southwest 473 544 34,000  Level Memphis Center
12:42PM 35.9794 -93.6531 221° Southwest 473 544 34,000  Level Memphis Center
12:43PM 35.8794 -93.7581 220° Southwest 474 545 34,000  Level Memphis Center
12:44PM 35.7581 -93.8853 220° Southwest 474 545 34,000  Level Memphis Center
12:45PM 35.6589 -93.9903 221° Southwest 474 545 34,000  Level Memphis Center
12:46PM 35.5594 -94.0939 220° Southwest 474 545 34,000  Level Memphis Center
12:47PM 35.4586 -94.1975 220° Southwest 474 545 34,000  Level Memphis Center
12:48PM 35.3469 -94.3158 221° Southwest 474 545 34,000  Level Memphis Center
12:49PM 35.2422 -94.4297 222° Southwest 474 545 34,000  Level Memphis Center
12:50PM 35.1444 -94.5364 222° Southwest 473 544 34,000  Level Memphis Center
12:51PM 35.0472 -94.6422 222° Southwest 473 544 34,000  Level Memphis Center
12:52PM 34.9522 -94.7436 221° Southwest 473 544 34,000  Level Memphis Center
12:53PM 34.8678 -94.8344 221° Southwest 476 548 34,000  Level Fort Worth Center
12:54PM 34.7706 -94.9403 222° Southwest 474 545 34,000 -180 Level Fort Worth Center
12:55PM 34.6692 -95.0453 220° Southwest 477 549 33,700 -540 Descending Fort Worth Center
12:56PM 34.5686 -95.1475 220° Southwest 477 549 33,000 -720 Descending Fort Worth Center
12:57PM 34.4689 -95.2497 220° Southwest 474 545 32,300 -720 Descending Fort Worth Center
12:58PM 34.3661 -95.3528 220° Southwest 477 549 31,600 -780 Descending Fort Worth Center
12:59PM 34.2458 -95.4747 220° Southwest 476 548 30,800 -780 Descending Fort Worth Center
01:00PM 34.1442 -95.5772 220° Southwest 474 545 30,100 -1,620 Descending Fort Worth Center
01:01PM 34.0353 -95.6861 220° Southwest 473 544 27,500 -2,520 Descending Fort Worth Center
01:02PM 33.9358 -95.7869 220° Southwest 471 542 24,900 -2,460 Descending Fort Worth Center
01:03PM 33.8383 -95.8825 219° Southwest 458 527 22,400 -2,400 Descending Fort Worth Center
01:04PM 33.7406 -95.9781 219° Southwest 402 463 19,900 -2,280 Descending Fort Worth Center
01:05PM 33.6567 -96.0611 220° Southwest 367 422 17,700 -1,980 Descending Fort Worth Center
01:06PM 33.5811 -96.1361 220° Southwest 355 409 15,900 -1,860 Descending Fort Worth Center
01:07PM 33.5031 -96.2117 219° Southwest 334 384 13,900 -2,040 Descending Fort Worth Center
01:09PM 33.4331 -96.2797 219° Southwest 325 374 11,700 -1,440 Descending Fort Worth Center
01:10PM 33.3764 -96.3553 228° Southwest 302 348 11,000 -540 Descending Fort Worth Center
01:11PM 33.3347 -96.4458 241° Southwest 290 334 10,600 -720 Descending Fort Worth Center
01:12PM 33.3064 -96.5353 249° West 288 331 9,600 -960 Descending Fort Worth Center
01:13PM 33.2761 -96.6283 249° West 284 327 8,700 -840 Descending Fort Worth Center
01:14PM 33.2475 -96.7147 248° West 283 326 7,900 -840 Descending Fort Worth Center
01:15PM 33.2172 -96.8072 249° West 282 325 7,000 -900 Descending Fort Worth Center
01:16PM 33.1906 -96.8939 250° West 275 316 6,100 -900 Descending Fort Worth Center
01:17PM 33.1644 -96.9606 245° Southwest 225 259 5,200 -1,080 Descending Fort Worth Center
01:18PM 33.1089 -96.9950 207° Southwest 213 245 3,900 -1,080 Descending Fort Worth Center
01:19PM 33.0556 -97.0200 201° Southwest 208 239 3,000 -960 Descending Fort Worth Center
01:20PM 32.9933 -97.0258 184° South 207 238 2,000 -960 Descending Fort Worth Center
01:21PM 32.9458 -97.0258 180° South 169 194 1,100 -720 Descending Fort Worth Center
01:22PM 32.9081 -97.0272 182° South 137 158 600 -540 Descending Fort Worth Center